Time;durP1;ratioP1;P1;durP2;ratioP2;P2;SDS_P1;SDS_P2;PMS_P1;PMS_P2;Temp;Humidity;BMP_temperature;BMP_pressure;BME280_temperature;BME280_humidity;BME280_pressure;Samples;Min_cycle;Max_cycle;Signal;HPM_P1;HPM_P2
2023/05/30 00:00:36;;;;;;;18.83;4.53;;;;;;;;;;4995950;28;20096;-85
2023/05/30 00:03:04;;;;;;;14.00;3.45;;;;;;;;;;4986954;28;20487;-85
2023/05/30 00:05:30;;;;;;;15.60;4.18;;;;;;;;;;5007019;28;20053;-85
2023/05/30 00:07:56;;;;;;;16.17;3.70;;;;;;;;;;5008021;28;20038;-85
2023/05/30 00:10:22;;;;;;;13.20;3.58;;;;;;;;;;4998712;28;20077;-85
2023/05/30 00:12:49;;;;;;;13.65;3.97;;;;;;;;;;5016541;28;20385;-85
2023/05/30 00:15:16;;;;;;;15.50;4.18;;;;;;;;;;5019234;28;20050;-85
2023/05/30 00:17:42;;;;;;;19.60;5.38;;;;;;;;;;5007012;28;20046;-85
2023/05/30 00:20:08;;;;;;;15.88;4.68;;;;;;;;;;5028946;28;20045;-85
2023/05/30 00:22:37;;;;;;;14.38;3.60;;;;;;;;;;5010746;28;20455;-84
2023/05/30 00:25:04;;;;;;;11.18;3.38;;;;;;;;;;5026345;28;20045;-84
2023/05/30 00:27:30;;;;;;;12.85;4.28;;;;;;;;;;4997397;28;20045;-85
2023/05/30 00:29:56;;;;;;;14.13;5.00;;;;;;;;;;4998983;28;20041;-84
2023/05/30 00:32:22;;;;;;;17.30;4.10;;;;;;;;;;4996359;28;20052;-85
2023/05/30 00:34:48;;;;;;;11.98;3.78;;;;;;;;;;5002606;28;20043;-85
2023/05/30 00:37:14;;;;;;;12.05;3.55;;;;;;;;;;5009924;28;20061;-85
2023/05/30 00:39:41;;;;;;;10.80;3.42;;;;;;;;;;5004028;28;20049;-84
2023/05/30 00:42:07;;;;;;;9.50;3.25;;;;;;;;;;5000352;28;20104;-85
2023/05/30 00:44:33;;;;;;;13.70;3.53;;;;;;;;;;4992361;28;20487;-85
2023/05/30 00:46:59;;;;;;;11.82;3.28;;;;;;;;;;4992124;28;20066;-84
2023/05/30 00:49:26;;;;;;;13.68;3.40;;;;;;;;;;4999148;28;20535;-85
2023/05/30 00:51:52;;;;;;;15.35;3.58;;;;;;;;;;4999364;28;20095;-85
2023/05/30 00:54:19;;;;;;;10.50;2.95;;;;;;;;;;4991181;28;20048;-85
2023/05/30 00:56:45;;;;;;;12.07;3.42;;;;;;;;;;5016481;28;20139;-84
2023/05/30 00:59:11;;;;;;;13.20;4.00;;;;;;;;;;5016965;28;20052;-85
2023/05/30 01:01:37;;;;;;;13.10;3.40;;;;;;;;;;5015287;28;20041;-85
2023/05/30 01:04:04;;;;;;;9.52;3.33;;;;;;;;;;4981579;28;20053;-85
2023/05/30 01:06:30;;;;;;;15.23;4.78;;;;;;;;;;5008183;28;20037;-85
2023/05/30 01:08:58;;;;;;;10.68;3.08;;;11.30;99.90;;;;;;4992437;28;20049;-85
2023/05/30 01:11:54;;;;;;;13.13;3.55;;;11.60;99.90;;;;;;5004046;28;20523;-84
2023/05/30 01:14:29;;;;;;;9.77;3.38;;;;;;;;;;5008881;28;20046;-85
2023/05/30 01:17:06;;;;;;;15.63;4.65;;;11.30;99.90;;;;;;5000089;28;20552;-84
2023/05/30 01:19:55;;;;;;;14.73;4.10;;;;;;;;;;5001222;28;20506;-85
2023/05/30 01:22:36;;;;;;;11.95;3.80;;;;;;;;;;4993312;28;20562;-84
2023/05/30 01:25:23;;;;;;;20.05;4.40;;;;;;;;;;4988503;28;20041;-84
2023/05/30 01:28:00;;;;;;;10.57;3.63;;;;;;;;;;4974806;28;20052;-85
2023/05/30 01:30:29;;;;;;;13.55;4.00;;;11.20;99.90;;;;;;4999646;28;20045;-85
2023/05/30 01:32:55;;;;;;;10.85;3.20;;;;;;;;;;5007585;28;20076;-85
2023/05/30 01:35:22;;;;;;;10.90;3.97;;;11.30;99.90;;;;;;5002675;28;20073;-85
2023/05/30 01:37:48;;;;;;;14.75;4.10;;;;;;;;;;4993532;28;20050;-85
2023/05/30 01:40:16;;;;;;;11.32;3.40;;;;;;;;;;4974459;28;20057;-84
2023/05/30 01:42:44;;;;;;;13.18;3.55;;;11.20;99.90;;;;;;4981950;28;20030;-85
2023/05/30 01:45:20;;;;;;;13.80;4.18;;;;;;;;;;4966869;28;20038;-84
2023/05/30 01:47:57;;;;;;;11.55;3.45;;;;;;;;;;4983196;28;20068;-85
2023/05/30 01:50:26;;;;;;;10.27;3.40;;;;;;;;;;4984886;28;20100;-85
2023/05/30 01:52:59;;;;;;;10.80;3.42;;;11.40;99.90;;;;;;4980885;28;20562;-85
2023/05/30 01:55:26;;;;;;;15.05;4.43;;;11.40;99.90;;;;;;4984370;28;20041;-84
2023/05/30 01:57:52;;;;;;;9.75;3.45;;;;;;;;;;5000475;28;20069;-85
2023/05/30 02:00:19;;;;;;;12.85;4.03;;;;;;;;;;4980488;28;20046;-85
2023/05/30 02:02:45;;;;;;;12.63;3.60;;;;;;;;;;5000210;28;20447;-85
2023/05/30 02:05:11;;;;;;;7.75;3.20;;;;;;;;;;4992377;28;20528;-85
2023/05/30 02:07:37;;;;;;;11.73;4.00;;;;;;;;;;4983803;28;20061;-85
2023/05/30 02:10:04;;;;;;;10.02;3.25;;;;;;;;;;4994790;28;20042;-85
2023/05/30 02:12:30;;;;;;;12.43;4.18;;;;;;;;;;4977424;28;20049;-85
2023/05/30 02:14:56;;;;;;;11.45;3.50;;;;;;;;;;4978620;28;20775;-85
2023/05/30 02:17:22;;;;;;;15.77;3.92;;;11.10;99.90;;;;;;4985954;28;20059;-85
2023/05/30 02:19:48;;;;;;;11.32;4.13;;;;;;;;;;4982228;28;20508;-85
2023/05/30 02:22:15;;;;;;;11.55;4.18;;;;;;;;;;4994453;28;20462;-85
2023/05/30 02:24:41;;;;;;;8.50;3.50;;;;;;;;;;4994064;28;20610;-85
2023/05/30 02:27:08;;;;;;;9.52;3.08;;;;;;;;;;4999879;28;20077;-84
2023/05/30 02:29:34;;;;;;;9.50;4.53;;;;;;;;;;4984516;28;20496;-85
2023/05/30 02:32:00;;;;;;;8.88;3.95;;;;;;;;;;4969598;28;20416;-85
2023/05/30 02:34:26;;;;;;;13.50;3.95;;;;;;;;;;4987125;28;20385;-85
2023/05/30 02:36:52;;;;;;;13.40;3.40;;;;;;;;;;4980231;28;20061;-85
2023/05/30 02:39:18;;;;;;;10.57;4.00;;;;;;;;;;4999967;28;20536;-84
2023/05/30 02:41:44;;;;;;;12.23;3.90;;;;;;;;;;4991568;28;20037;-84
2023/05/30 02:44:10;;;;;;;15.18;3.72;;;;;;;;;;4988979;28;20164;-84
2023/05/30 02:46:36;;;;;;;11.85;4.00;;;;;;;;;;5000099;28;20057;-85
2023/05/30 02:49:02;;;;;;;9.82;3.92;;;;;;;;;;4997653;28;20057;-84
2023/05/30 02:51:28;;;;;;;12.00;3.83;;;;;;;;;;4998612;28;20053;-84
2023/05/30 02:53:55;;;;;;;14.98;4.50;;;;;;;;;;4974935;28;20408;-85
2023/05/30 02:56:24;;;;;;;11.65;4.55;;;11.40;99.90;;;;;;4999622;28;20054;-85
2023/05/30 02:58:50;;;;;;;10.13;3.53;;;;;;;;;;4979593;28;20480;-84
2023/05/30 03:01:16;;;;;;;12.00;4.93;;;;;;;;;;4997437;28;20041;-85
2023/05/30 03:03:42;;;;;;;9.18;3.38;;;;;;;;;;4981209;28;20045;-85
2023/05/30 03:06:08;;;;;;;12.35;4.15;;;;;;;;;;5016321;28;20060;-85
2023/05/30 03:08:36;;;;;;;12.85;4.25;;;;;;;;;;5011699;28;20038;-85
2023/05/30 03:11:02;;;;;;;14.13;4.35;;;;;;;;;;5005135;28;20073;-85
2023/05/30 03:13:28;;;;;;;11.85;3.92;;;;;;;;;;5018688;28;20465;-85
2023/05/30 03:15:53;;;;;;;8.98;3.38;;;;;;;;;;4991905;28;20156;-85
2023/05/30 03:18:19;;;;;;;9.52;3.92;;;;;;;;;;5013747;28;20042;-85
2023/05/30 03:20:46;;;;;;;10.93;3.67;;;;;;;;;;4979008;28;20137;-85
2023/05/30 03:23:12;;;;;;;10.95;4.25;;;;;;;;;;4999615;28;20132;-85
2023/05/30 03:25:38;;;;;;;6.75;3.30;;;;;;;;;;4999944;28;20132;-84
2023/05/30 03:28:06;;;;;;;10.32;4.07;;;;;;;;;;5001721;28;20391;-85
2023/05/30 03:30:33;;;;;;;13.85;4.57;;;;;;;;;;5023697;28;20041;-85
2023/05/30 03:32:59;;;;;;;13.80;4.07;;;;;;;;;;4988585;28;20485;-85
2023/05/30 03:35:25;;;;;;;15.15;4.30;;;;;;;;;;5001098;28;20049;-84
2023/05/30 03:37:51;;;;;;;13.88;4.15;;;;;;;;;;4997532;28;20054;-84
2023/05/30 03:40:17;;;;;;;9.00;3.63;;;;;;;;;;4999857;28;20065;-85
2023/05/30 03:42:44;;;;;;;14.68;4.35;;;;;;;;;;4999432;28;20521;-84
2023/05/30 03:45:10;;;;;;;18.50;4.22;;;;;;;;;;4982395;28;20124;-84
2023/05/30 03:47:36;;;;;;;16.73;4.30;;;;;;;;;;4987664;28;20412;-85
2023/05/30 03:50:02;;;;;;;11.27;3.83;;;;;;;;;;5002312;28;20034;-84
2023/05/30 03:52:29;;;;;;;15.75;5.55;;;;;;;;;;4994094;28;20126;-85
2023/05/30 03:54:55;;;;;;;13.30;4.95;;;;;;;;;;4988252;28;20487;-85
2023/05/30 03:57:21;;;;;;;14.90;4.20;;;;;;;;;;4991395;28;20073;-85
2023/05/30 03:59:47;;;;;;;13.60;4.57;;;;;;;;;;5019237;28;20087;-85
2023/05/30 04:02:13;;;;;;;11.85;4.25;;;;;;;;;;4989417;28;20042;-85
2023/05/30 04:04:40;;;;;;;8.05;3.75;;;;;;;;;;4984920;28;20077;-84
2023/05/30 04:07:07;;;;;;;14.10;3.80;;;;;;;;;;4997568;28;20053;-84
2023/05/30 04:09:33;;;;;;;13.15;5.82;;;;;;;;;;4994869;28;20042;-85
2023/05/30 04:11:59;;;;;;;10.75;4.40;;;;;;;;;;5008496;28;20049;-85
2023/05/30 04:14:25;;;;;;;11.55;4.38;;;;;;;;;;5013440;28;20042;-85
2023/05/30 04:16:51;;;;;;;15.30;4.65;;;;;;;;;;4999406;28;20499;-84
2023/05/30 04:19:17;;;;;;;13.80;4.65;;;;;;;;;;4995924;28;20045;-84
2023/05/30 04:21:42;;;;;;;15.48;5.22;;;;;;;;;;4993838;28;20042;-84
2023/05/30 04:24:09;;;;;;;18.58;4.70;;;;;;;;;;4999517;28;20056;-85
2023/05/30 04:26:36;;;;;;;14.40;4.57;;;;;;;;;;4996993;28;20042;-85
2023/05/30 04:29:02;;;;;;;8.63;3.75;;;;;;;;;;5016927;28;20037;-84
2023/05/30 04:31:28;;;;;;;15.38;4.93;;;;;;;;;;5016412;28;20495;-85
2023/05/30 04:33:55;;;;;;;15.35;4.80;;;11.60;99.90;;;;;;4996678;28;20045;-85
2023/05/30 04:36:21;;;;;;;12.90;4.53;;;;;;;;;;4996634;28;20115;-85
2023/05/30 04:38:48;;;;;;;13.55;4.35;;;;;;;;;;5011951;28;20518;-84
2023/05/30 04:41:20;;;;;;;17.33;4.80;;;;;;;;;;5009582;28;20053;-84
2023/05/30 04:43:54;;;;;;;14.13;4.22;;;11.70;99.90;;;;;;4998356;28;20034;-85
2023/05/30 04:46:23;;;;;;;9.77;3.85;;;;;;;;;;4989932;28;20045;-84
2023/05/30 04:48:51;;;;;;;12.77;4.50;;;;;;;;;;5007155;28;20029;-84
2023/05/30 04:51:17;;;;;;;19.17;4.63;;;;;;;;;;4990149;28;20034;-85
2023/05/30 04:53:43;;;;;;;13.35;4.63;;;;;;;;;;5021928;28;20045;-84
2023/05/30 04:56:09;;;;;;;18.10;4.63;;;;;;;;;;4999894;28;20111;-84
2023/05/30 04:58:35;;;;;;;15.32;4.00;;;;;;;;;;5017228;28;20041;-84
2023/05/30 05:01:01;;;;;;;17.27;4.20;;;;;;;;;;4998400;28;20423;-84
2023/05/30 05:03:27;;;;;;;11.43;4.05;;;;;;;;;;5002856;28;20050;-84
2023/05/30 05:05:53;;;;;;;13.52;4.10;;;;;;;;;;5001461;28;20141;-84
2023/05/30 05:08:19;;;;;;;15.35;4.20;;;;;;;;;;5023601;28;20040;-84
2023/05/30 05:10:45;;;;;;;12.88;4.00;;;;;;;;;;5017757;28;20038;-84
2023/05/30 05:13:11;;;;;;;12.38;3.90;;;;;;;;;;5003930;28;20049;-84
2023/05/30 05:15:37;;;;;;;13.02;4.63;;;;;;;;;;5023154;28;20045;-84
2023/05/30 05:18:03;;;;;;;20.85;5.72;;;;;;;;;;4980855;28;20083;-84
2023/05/30 05:20:29;;;;;;;13.77;4.60;;;;;;;;;;5023886;28;20042;-85
2023/05/30 05:22:56;;;;;;;17.50;4.20;;;;;;;;;;5013400;28;20542;-84
2023/05/30 05:25:22;;;;;;;18.00;4.45;;;;;;;;;;5005109;28;20053;-84
2023/05/30 05:27:48;;;;;;;16.25;3.88;;;;;;;;;;5018396;28;20033;-84
2023/05/30 05:30:14;;;;;;;14.88;4.30;;;12.00;99.90;;;;;;4992508;28;20049;-84
2023/05/30 05:32:40;;;;;;;13.02;5.63;;;;;;;;;;5011026;28;20045;-85
2023/05/30 05:35:07;;;;;;;15.93;4.93;;;;;;;;;;5003757;28;20057;-84
2023/05/30 05:37:34;;;;;;;13.43;4.43;;;;;;;;;;5024355;28;20716;-84
2023/05/30 05:40:04;;;;;;;15.93;4.40;;;;;;;;;;5001925;28;20453;-85
2023/05/30 05:42:30;;;;;;;12.00;4.35;;;;;;;;;;5018980;28;20529;-85
2023/05/30 05:44:56;;;;;;;10.98;4.18;;;;;;;;;;4989690;28;20052;-85
2023/05/30 05:47:22;;;;;;;13.13;3.95;;;;;;;;;;4996291;28;20044;-85
2023/05/30 05:49:48;;;;;;;13.05;3.80;;;;;;;;;;5009316;28;20400;-85
2023/05/30 05:52:14;;;;;;;14.40;4.22;;;;;;;;;;5003028;28;20064;-84
2023/05/30 05:54:40;;;;;;;14.95;4.10;;;;;;;;;;5004719;28;20459;-85
2023/05/30 05:57:06;;;;;;;13.15;4.03;;;;;;;;;;4986084;28;20048;-85
2023/05/30 05:59:32;;;;;;;12.75;4.07;;;;;;;;;;4983921;28;20392;-85
2023/05/30 06:01:58;;;;;;;12.50;3.65;;;;;;;;;;5004780;28;20041;-85
2023/05/30 06:04:24;;;;;;;13.45;4.57;;;;;;;;;;4997623;28;20051;-85
2023/05/30 06:06:50;;;;;;;13.43;4.55;;;;;;;;;;5021908;28;20127;-85
2023/05/30 06:09:16;;;;;;;19.95;5.80;;;;;;;;;;5020168;28;20073;-85
2023/05/30 06:11:42;;;;;;;9.57;3.63;;;12.20;99.90;;;;;;4979457;28;20124;-85
2023/05/30 06:14:08;;;;;;;11.95;3.88;;;;;;;;;;5005471;28;20048;-85
2023/05/30 06:16:34;;;;;;;13.75;4.18;;;;;;;;;;5020335;28;20499;-85
2023/05/30 06:18:59;;;;;;;7.75;3.70;;;12.20;99.90;;;;;;5004203;28;20160;-84
2023/05/30 06:21:25;;;;;;;15.27;4.00;;;;;;;;;;5000676;28;20199;-84
2023/05/30 06:23:51;;;;;;;12.55;4.72;;;;;;;;;;5021993;28;20072;-85
2023/05/30 06:26:17;;;;;;;10.25;3.75;;;;;;;;;;4991130;28;20038;-85
2023/05/30 06:28:43;;;;;;;11.30;4.25;;;;;;;;;;5002170;28;20529;-85
2023/05/30 06:31:09;;;;;;;12.23;3.95;;;;;;;;;;5008132;28;20037;-84
2023/05/30 06:33:35;;;;;;;16.13;4.47;;;;;;;;;;5002894;28;20072;-84
2023/05/30 06:36:01;;;;;;;9.38;4.05;;;;;;;;;;5005654;28;20127;-85
2023/05/30 06:38:27;;;;;;;14.07;3.90;;;12.20;99.90;;;;;;5003962;28;20049;-84
2023/05/30 06:40:53;;;;;;;16.00;4.03;;;;;;;;;;4996692;28;20563;-85
2023/05/30 06:43:19;;;;;;;12.57;3.85;;;;;;;;;;4996405;28;20392;-86
2023/05/30 06:45:45;;;;;;;13.65;4.70;;;;;;;;;;5002252;28;20462;-86
2023/05/30 06:48:11;;;;;;;11.98;3.80;;;;;;;;;;5000458;28;20038;-86
2023/05/30 06:50:36;;;;;;;14.20;4.20;;;12.20;99.90;;;;;;5002155;28;20052;-86
2023/05/30 06:53:02;;;;;;;12.05;3.17;;;;;;;;;;4990467;28;20155;-86
2023/05/30 06:55:28;;;;;;;10.15;3.60;;;;;;;;;;5007148;28;20103;-86
2023/05/30 06:57:55;;;;;;;10.23;4.07;;;;;;;;;;4998166;28;20832;-86
2023/05/30 07:00:21;;;;;;;6.88;2.55;;;;;;;;;;5016236;28;20045;-85
2023/05/30 07:02:47;;;;;;;11.55;3.85;;;;;;;;;;4991196;28;20160;-85
2023/05/30 07:05:12;;;;;;;8.70;2.55;;;12.40;99.90;;;;;;5023013;28;20081;-85
2023/05/30 07:07:39;;;;;;;11.85;3.08;;;;;;;;;;5005195;28;20041;-86
2023/05/30 07:10:07;;;;;;;9.05;3.00;;;12.60;99.90;;;;;;5013478;28;20437;-85
2023/05/30 07:12:33;;;;;;;6.93;2.80;;;;;;;;;;4998261;28;20496;-87
2023/05/30 07:14:59;;;;;;;8.95;3.15;;;;;;;;;;5013839;28;20069;-87
2023/05/30 07:17:25;;;;;;;10.98;3.20;;;;;;;;;;4998498;28;20504;-89
2023/05/30 07:19:51;;;;;;;7.38;2.80;;;;;;;;;;5010883;28;20090;-89
2023/05/30 07:22:17;;;;;;;8.18;2.85;;;;;;;;;;5022092;28;20042;-88
2023/05/30 07:24:43;;;;;;;6.63;2.90;;;;;;;;;;4994876;28;20038;-87
2023/05/30 07:27:09;;;;;;;12.82;3.33;;;;;;;;;;4999748;28;20061;-87
2023/05/30 07:29:35;;;;;;;7.85;3.17;;;;;;;;;;4990831;28;20084;-88
2023/05/30 07:32:01;;;;;;;12.43;3.35;;;;;;;;;;5018018;28;20045;-88
2023/05/30 07:34:27;;;;;;;8.68;2.55;;;;;;;;;;5004534;28;20095;-88
2023/05/30 07:36:53;;;;;;;11.07;3.03;;;;;;;;;;4991471;28;20057;-88
2023/05/30 07:39:19;;;;;;;9.25;2.60;;;12.60;99.90;;;;;;4999567;28;20068;-87
2023/05/30 07:41:45;;;;;;;10.30;3.28;;;;;;;;;;5005604;28;20095;-88
2023/05/30 07:44:11;;;;;;;10.88;3.17;;;;;;;;;;4987109;28;20041;-87
2023/05/30 07:46:37;;;;;;;8.05;2.75;;;;;;;;;;4990577;28;20038;-86
2023/05/30 07:49:03;;;;;;;6.78;2.47;;;;;;;;;;5004236;28;20043;-87
2023/05/30 07:51:30;;;;;;;6.72;2.20;;;;;;;;;;4980838;28;20475;-87
2023/05/30 07:53:56;;;;;;;9.40;2.90;;;;;;;;;;5006821;28;20120;-88
2023/05/30 07:56:22;;;;;;;9.05;2.30;;;;;;;;;;4993038;28;20164;-87
2023/05/30 07:58:48;;;;;;;6.03;2.30;;;;;;;;;;4997113;28;20054;-88
2023/05/30 08:01:14;;;;;;;8.73;2.40;;;;;;;;;;4994645;28;20144;-87
2023/05/30 08:03:40;;;;;;;6.97;2.17;;;;;;;;;;4984709;28;20634;-87
2023/05/30 08:06:07;;;;;;;6.25;2.10;;;;;;;;;;4989692;28;20160;-87
2023/05/30 08:08:33;;;;;;;4.97;2.13;;;;;;;;;;5002348;28;20042;-87
2023/05/30 08:10:59;;;;;;;5.00;2.30;;;;;;;;;;4993341;28;20033;-87
2023/05/30 08:13:28;;;;;;;7.22;2.13;;;12.80;99.90;;;;;;5003069;28;20048;-88
2023/05/30 08:15:54;;;;;;;5.05;2.15;;;;;;;;;;4991189;28;20692;-87
2023/05/30 08:18:21;;;;;;;5.90;2.38;;;;;;;;;;4990176;28;20064;-87
2023/05/30 08:20:47;;;;;;;8.90;2.47;;;;;;;;;;4981933;28;20073;-88
2023/05/30 08:23:13;;;;;;;7.38;1.77;;;;;;;;;;5005925;28;20153;-88
2023/05/30 08:25:45;;;;;;;5.13;2.00;;;;;;;;;;4985322;28;20042;-87
2023/05/30 08:28:11;;;;;;;7.20;1.50;;;;;;;;;;4991478;28;20045;-88
2023/05/30 08:30:37;;;;;;;7.60;2.10;;;;;;;;;;5015833;28;20034;-87
2023/05/30 08:33:03;;;;;;;4.45;1.67;;;;;;;;;;4991218;28;20038;-88
2023/05/30 08:35:29;;;;;;;7.97;2.17;;;;;;;;;;5012531;28;20037;-87
2023/05/30 08:37:57;;;;;;;3.83;1.80;;;;;;;;;;5003124;28;20088;-87
2023/05/30 08:40:26;;;;;;;5.68;1.77;;;12.80;99.90;;;;;;4991581;28;20129;-88
2023/05/30 08:42:52;;;;;;;6.65;2.60;;;;;;;;;;4996836;28;20088;-87
2023/05/30 08:45:19;;;;;;;5.28;2.40;;;;;;;;;;5010170;28;20045;-87
2023/05/30 08:47:45;;;;;;;6.88;2.30;;;;;;;;;;5007320;28;20076;-87
2023/05/30 08:50:12;;;;;;;4.63;1.77;;;13.00;99.90;;;;;;4996778;28;20046;-87
2023/05/30 08:52:42;;;;;;;6.10;2.15;;;13.00;99.90;;;;;;5007374;28;20041;-87
2023/05/30 08:55:08;;;;;;;4.82;1.98;;;;;;;;;;4994020;28;20045;-87
2023/05/30 08:57:47;;;;;;;6.40;2.05;;;13.10;99.90;;;;;;5007218;28;20050;-87
2023/05/30 09:00:14;;;;;;;3.40;1.77;;;;;;;;;;5005370;28;20242;-88
2023/05/30 09:02:40;;;;;;;4.32;1.67;;;;;;;;;;5006633;28;20042;-87
2023/05/30 09:05:07;;;;;;;5.28;1.65;;;13.30;99.90;;;;;;5019227;28;20053;-88
2023/05/30 09:07:34;;;;;;;4.32;1.70;;;13.40;99.90;;;;;;5004552;28;20503;-87
2023/05/30 09:10:00;;;;;;;4.72;1.85;;;;;;;;;;5002499;28;20042;-87
2023/05/30 09:12:26;;;;;;;3.50;1.55;;;;;;;;;;5000659;28;20041;-88
2023/05/30 09:14:53;;;;;;;2.35;1.45;;;;;;;;;;5018097;28;20048;-87
2023/05/30 09:17:19;;;;;;;5.72;2.17;;;;;;;;;;4982907;28;20450;-87
2023/05/30 09:19:45;;;;;;;5.43;1.83;;;13.50;99.90;;;;;;5008277;28;20046;-86
2023/05/30 09:22:11;;;;;;;4.90;1.80;;;;;;;;;;5020487;28;20048;-87
2023/05/30 09:25:00;;;;;;;3.20;1.70;;;;;;;;;;5005636;28;20041;-87
2023/05/30 09:27:34;;;;;;;5.53;1.35;;;13.40;99.90;;;;;;5008064;28;20055;-88
2023/05/30 09:30:10;;;;;;;3.22;1.70;;;13.50;99.90;;;;;;4999766;28;20038;-87
2023/05/30 09:32:39;;;;;;;5.10;1.38;;;;;;;;;;5004844;28;20037;-86
2023/05/30 09:35:06;;;;;;;2.67;1.38;;;13.60;99.90;;;;;;4990756;28;20068;-85
2023/05/30 09:37:38;;;;;;;2.90;1.10;;;13.40;99.90;;;;;;4999855;28;20640;-87
2023/05/30 09:40:06;;;;;;;3.25;1.13;;;;;;;;;;5015318;28;20049;-87
2023/05/30 09:42:54;;;;;;;2.40;1.10;;;13.70;99.90;;;;;;5013883;28;20052;-87
2023/05/30 09:45:22;;;;;;;4.45;1.65;;;13.50;99.90;;;;;;4988892;28;20049;-88
2023/05/30 09:47:50;;;;;;;2.95;1.52;;;13.50;99.90;;;;;;5001104;28;20144;-88
2023/05/30 09:50:18;;;;;;;3.22;1.50;;;13.60;99.90;;;;;;4999792;28;20046;-86
2023/05/30 09:52:45;;;;;;;3.55;1.27;;;;;;;;;;4989962;28;20037;-88
2023/05/30 09:55:14;;;;;;;4.88;2.00;;;13.40;99.90;;;;;;4996331;28;20444;-90
2023/05/30 09:57:46;;;;;;;2.58;1.58;;;13.70;99.90;;;;;;4998005;28;20041;-89
2023/05/30 10:00:15;;;;;;;2.47;1.70;;;13.50;99.90;;;;;;5000854;28;20088;-86
2023/05/30 10:02:44;;;;;;;4.65;1.60;;;13.20;99.90;;;;;;4983634;28;20034;-86
2023/05/30 10:05:21;;;;;;;3.45;2.05;;;13.60;99.90;;;;;;5005607;28;20045;-87
2023/05/30 10:07:51;;;;;;;1.98;1.67;;;13.60;99.90;;;;;;5018468;28;20037;-86
2023/05/30 10:10:17;;;;;;;2.88;1.63;;;;;;;;;;4993786;28;20050;-86
2023/05/30 10:12:46;;;;;;;3.38;1.60;;;13.70;99.90;;;;;;4996895;28;20114;-86
2023/05/30 10:15:12;;;;;;;2.17;1.48;;;;;;;;;;5007902;28;20049;-86
2023/05/30 10:17:54;;;;;;;2.50;1.30;;;13.50;99.90;;;;;;5018616;28;20538;-86
2023/05/30 10:20:23;;;;;;;1.98;1.17;;;13.70;99.90;;;;;;5018246;28;20057;-86
2023/05/30 10:22:52;;;;;;;2.55;1.30;;;13.70;99.90;;;;;;5021807;28;20151;-85
2023/05/30 10:25:19;;;;;;;3.10;1.40;;;;;;;;;;5019817;28;20053;-86
2023/05/30 10:27:54;;;;;;;2.65;1.05;;;;;;;;;;5002029;28;20102;-86
2023/05/30 10:30:29;;;;;;;1.75;1.00;;;13.90;99.90;;;;;;5019337;28;20407;-85
2023/05/30 10:33:00;;;;;;;1.83;1.15;;;13.80;99.90;;;;;;5013980;28;20120;-86
2023/05/30 10:35:27;;;;;;;3.03;1.02;;;;;;;;;;4988438;28;20049;-86
2023/05/30 10:37:53;;;;;;;1.60;1.00;;;;;;;;;;4984630;28;20041;-86
2023/05/30 10:40:46;;;;;;;3.08;1.20;;;14.10;99.90;;;;;;5020192;28;20464;-86
2023/05/30 10:43:18;;;;;;;1.55;1.00;;;14.30;99.90;;;;;;4997231;28;20050;-86
2023/05/30 10:46:05;;;;;;;1.58;0.90;;;14.10;99.90;;;;;;5002141;28;20041;-86
2023/05/30 10:48:44;;;;;;;2.25;0.80;;;14.10;99.90;;;;;;4985031;28;20042;-86
2023/05/30 10:51:13;;;;;;;2.45;1.48;;;14.20;99.90;;;;;;4996923;28;20127;-86
2023/05/30 10:53:44;;;;;;;3.88;0.90;;;14.30;99.90;;;;;;4998066;28;20730;-86
2023/05/30 10:56:40;;;;;;;2.33;1.10;;;14.10;99.90;;;;;;4985959;28;20046;-86
2023/05/30 10:59:18;;;;;;;2.38;0.82;;;14.20;99.90;;;;;;4989857;28;20053;-86
2023/05/30 11:02:05;;;;;;;2.38;0.90;;;14.30;99.90;;;;;;5012392;28;20041;-86
2023/05/30 11:04:44;;;;;;;2.58;0.95;;;14.10;99.90;;;;;;4981615;28;20419;-86
2023/05/30 11:07:11;;;;;;;1.83;1.23;;;14.30;99.90;;;;;;5011660;28;20462;-86
2023/05/30 11:09:43;;;;;;;3.83;1.10;;;14.20;99.90;;;;;;5000275;28;20048;-86
2023/05/30 11:12:21;;;;;;;2.15;1.10;;;14.00;99.90;;;;;;5013069;28;20452;-86
2023/05/30 11:14:58;;;;;;;4.95;1.10;;;14.20;99.90;;;;;;4999776;28;20568;-85
2023/05/30 11:17:34;;;;;;;1.85;1.10;;;14.00;99.90;;;;;;5002680;28;20102;-86
2023/05/30 11:20:21;;;;;;;3.17;1.40;;;13.90;99.90;;;;;;4984807;28;20038;-86
2023/05/30 11:23:02;;;;;;;4.07;1.30;;;14.00;99.90;;;;;;4988709;28;20077;-86
2023/05/30 11:25:29;;;;;;;1.90;1.20;;;14.10;99.90;;;;;;5003608;28;20083;-86
2023/05/30 11:28:04;;;;;;;3.08;1.30;;;13.80;99.90;;;;;;4996176;28;20061;-86
2023/05/30 11:30:40;;;;;;;1.95;1.10;;;13.90;99.90;;;;;;4995282;28;20038;-85
2023/05/30 11:33:13;;;;;;;2.40;1.20;;;14.00;99.90;;;;;;4998724;28;20136;-85
2023/05/30 11:35:43;;;;;;;6.07;1.35;;;13.90;99.90;;;;;;5016172;28;20175;-85
2023/05/30 11:38:09;;;;;;;2.28;1.10;;;;;;;;;;5006452;28;20455;-85
2023/05/30 11:40:42;;;;;;;2.53;1.15;;;14.00;99.90;;;;;;4987045;28;20065;-86
2023/05/30 11:43:08;;;;;;;3.85;1.42;;;;;;;;;;5001900;28;20037;-85
2023/05/30 11:45:34;;;;;;;3.72;1.42;;;;;;;;;;5002708;28;20477;-86
2023/05/30 11:48:08;;;;;;;2.55;1.50;;;14.60;99.90;;;;;;5013321;28;20076;-86
2023/05/30 11:50:40;;;;;;;2.80;1.00;;;14.40;99.90;;;;;;4994731;28;20042;-86
2023/05/30 11:53:11;;;;;;;2.35;1.27;;;14.30;99.90;;;;;;5021740;28;20050;-86
2023/05/30 11:55:37;;;;;;;4.10;1.00;;;;;;;;;;5002382;28;20049;-85
2023/05/30 11:58:03;;;;;;;1.98;1.20;;;;;;;;;;4994785;28;20041;-85
2023/05/30 12:00:30;;;;;;;1.70;0.95;;;;;;;;;;4993421;28;20397;-86
2023/05/30 12:02:56;;;;;;;1.02;0.80;;;;;;;;;;4997064;28;20149;-86
2023/05/30 12:05:22;;;;;;;7.30;1.02;;;;;;;;;;4978484;28;20121;-85
2023/05/30 12:07:52;;;;;;;1.98;0.70;;;14.70;99.90;;;;;;5011321;28;20044;-86
2023/05/30 12:10:27;;;;;;;2.00;0.93;;;14.80;99.90;;;;;;5010017;28;20045;-86
2023/05/30 12:12:53;;;;;;;6.22;0.98;;;;;;;;;;4996527;28;20129;-86
2023/05/30 12:15:19;;;;;;;4.60;0.90;;;;;;;;;;4999989;28;20128;-86
2023/05/30 12:17:45;;;;;;;2.72;1.17;;;;;;;;;;4998820;28;20041;-86
2023/05/30 12:20:13;;;;;;;1.75;0.90;;;14.60;99.90;;;;;;4977215;28;20052;-85
2023/05/30 12:22:45;;;;;;;2.83;0.98;;;14.70;99.90;;;;;;4995244;28;20057;-86
2023/05/30 12:25:13;;;;;;;2.72;1.08;;;;;;;;;;5010524;28;20077;-85
2023/05/30 12:27:49;;;;;;;10.07;1.88;;;14.60;99.90;;;;;;5008150;28;20049;-86
2023/05/30 12:30:16;;;;;;;2.72;1.13;;;14.70;99.90;;;;;;4992022;28;20577;-85
2023/05/30 12:32:42;;;;;;;4.75;0.98;;;;;;;;;;4995204;28;20099;-86
2023/05/30 12:35:09;;;;;;;2.00;0.85;;;;;;;;;;5015323;28;20423;-86
2023/05/30 12:37:36;;;;;;;4.72;1.30;;;;;;;;;;5004534;28;20132;-86
2023/05/30 12:40:04;;;;;;;3.05;1.08;;;15.00;99.90;;;;;;4987595;28;20045;-86
2023/05/30 12:42:30;;;;;;;18.23;1.58;;;15.00;99.90;;;;;;4994231;28;20042;-86
2023/05/30 12:45:04;;;;;;;1.40;1.10;;;15.00;99.90;;;;;;5001016;28;20047;-85
2023/05/30 12:47:30;;;;;;;2.08;0.95;;;;;;;;;;5016830;28;20084;-85
2023/05/30 12:49:57;;;;;;;0.95;0.80;;;14.90;99.90;;;;;;5003154;28;20701;-86
2023/05/30 12:52:25;;;;;;;4.18;1.50;;;15.00;99.90;;;;;;4997510;28;20069;-85
2023/05/30 12:54:51;;;;;;;3.17;1.15;;;;;;;;;;4999120;28;20038;-85
2023/05/30 12:57:19;;;;;;;2.38;0.90;;;15.00;99.90;;;;;;4990490;28;20033;-86
2023/05/30 12:59:45;;;;;;;1.65;1.35;;;;;;;;;;4983075;28;20033;-86
2023/05/30 13:02:11;;;;;;;1.65;0.77;;;;;;;;;;4989335;28;20045;-87
2023/05/30 13:04:40;;;;;;;1.90;1.10;;;15.10;99.90;;;;;;5019051;28;20091;-86
2023/05/30 13:07:09;;;;;;;1.67;1.33;;;15.00;99.90;;;;;;5012099;28;20049;-87
2023/05/30 13:09:39;;;;;;;3.28;1.10;;;15.00;99.90;;;;;;5012725;28;20048;-86
2023/05/30 13:12:09;;;;;;;2.05;0.95;;;15.20;99.90;;;;;;4983215;28;20103;-86
2023/05/30 13:14:40;;;;;;;1.17;1.00;;;15.20;99.90;;;;;;4985953;28;20049;-86
2023/05/30 13:17:08;;;;;;;3.17;1.42;;;;;;;;;;4983653;28;20054;-87
2023/05/30 13:19:34;;;;;;;1.67;1.30;;;;;;;;;;4995292;28;20045;-86
2023/05/30 13:22:00;;;;;;;2.22;1.30;;;;;;;;;;5001898;28;20137;-86
2023/05/30 13:24:26;;;;;;;1.92;1.20;;;;;;;;;;5000642;28;20052;-86
2023/05/30 13:26:52;;;;;;;1.15;0.98;;;;;;;;;;5002446;28;20038;-86
2023/05/30 13:29:18;;;;;;;2.03;1.10;;;;;;;;;;5018875;28;20096;-87
2023/05/30 13:31:44;;;;;;;2.10;1.10;;;;;;;;;;4976887;28;20041;-87
2023/05/30 13:34:10;;;;;;;1.85;1.63;;;;;;;;;;5003401;28;20041;-86
2023/05/30 13:36:36;;;;;;;1.65;1.25;;;;;;;;;;4993292;28;20068;-86
2023/05/30 13:39:03;;;;;;;2.30;1.35;;;;;;;;;;5005799;28;20407;-87
2023/05/30 13:41:29;;;;;;;2.75;1.40;;;;;;;;;;4990485;28;20057;-86
2023/05/30 13:43:57;;;;;;;3.53;1.30;;;;;;;;;;4998165;28;20525;-87
2023/05/30 13:46:23;;;;;;;3.13;1.50;;;;;;;;;;5004719;28;20049;-87
2023/05/30 13:48:49;;;;;;;3.80;1.70;;;;;;;;;;4976149;28;20038;-87
2023/05/30 13:51:15;;;;;;;2.83;1.40;;;;;;;;;;4995804;28;20038;-87
2023/05/30 13:53:42;;;;;;;2.58;1.75;;;;;;;;;;5017387;28;20099;-87
2023/05/30 13:56:08;;;;;;;2.38;1.60;;;;;;;;;;4995805;28;20111;-87
2023/05/30 13:58:34;;;;;;;3.17;1.70;;;;;;;;;;5001112;28;20593;-87
2023/05/30 14:01:03;;;;;;;1.85;1.52;;;15.60;99.90;;;;;;4993987;28;20121;-87
2023/05/30 14:03:29;;;;;;;8.65;2.05;;;;;;;;;;4982399;28;20072;-86
2023/05/30 14:05:55;;;;;;;3.63;1.65;;;;;;;;;;5001448;28;20045;-87
2023/05/30 14:08:21;;;;;;;2.25;1.55;;;;;;;;;;4993215;28;20072;-87